Terminal Aerodrome Forecast
Issued by NWS

Home | Current Version | Previous Version | Text Only | Print | Product List | Glossary On
Versions: 1 2 3 4 5 6 7 8 9 10 11 12 13 14 15 16
975
FTUS43 KIND 270520
TAFLAF
TAF
KLAF 270520Z 2706/2806 19006KT P6SM SCT100 BKN250
      TEMPO 2710/2713 4SM BR
     FM271800 20010G18KT P6SM SCT050 BKN150
      AMD LTD TO CLD VIS AND WIND TIL 271300=

USA.gov is the U.S. government's official web portal to all federal, state and local government web resources and services.